sensor_id;sensor_type;location;lat;lon;timestamp;temperature;humidity
26049;DHT22;13822;51.568;5.086;2022-12-07T04:24:40;4.50;99.90
26049;DHT22;13822;51.568;5.086;2022-12-07T04:30:34;4.40;99.90
26049;DHT22;13822;51.568;5.086;2022-12-07T04:36:40;4.40;99.90
26049;DHT22;13822;51.568;5.086;2022-12-07T04:42:51;4.50;99.90
26049;DHT22;13822;51.568;5.086;2022-12-07T04:48:33;4.40;99.90
26049;DHT22;13822;51.568;5.086;2022-12-07T05:01:21;4.50;99.90
26049;DHT22;13822;51.568;5.086;2022-12-07T06:01:31;4.20;99.90
26049;DHT22;13822;51.568;5.086;2022-12-07T06:32:39;3.80;99.90
26049;DHT22;13822;51.568;5.086;2022-12-07T06:37:40;3.70;99.90
26049;DHT22;13822;51.568;5.086;2022-12-07T06:42:42;3.70;99.90
26049;DHT22;13822;51.568;5.086;2022-12-07T06:47:44;3.70;99.90
26049;DHT22;13822;51.568;5.086;2022-12-07T06:52:47;3.60;99.90
26049;DHT22;13822;51.568;5.086;2022-12-07T06:57:49;3.60;99.90
26049;DHT22;13822;51.568;5.086;2022-12-07T07:02:50;3.50;99.90
26049;DHT22;13822;51.568;5.086;2022-12-07T07:07:52;3.50;99.90
26049;DHT22;13822;51.568;5.086;2022-12-07T07:13:14;3.50;99.90
26049;DHT22;13822;51.568;5.086;2022-12-07T07:18:16;3.50;99.90
26049;DHT22;13822;51.568;5.086;2022-12-07T07:23:18;3.50;99.90
26049;DHT22;13822;51.568;5.086;2022-12-07T07:28:21;3.50;99.90
26049;DHT22;13822;51.568;5.086;2022-12-07T07:33:23;3.50;99.90
26049;DHT22;13822;51.568;5.086;2022-12-07T07:38:24;3.50;99.90
26049;DHT22;13822;51.568;5.086;2022-12-07T07:43:26;3.50;99.90
26049;DHT22;13822;51.568;5.086;2022-12-07T07:48:28;3.50;99.90
26049;DHT22;13822;51.568;5.086;2022-12-07T07:53:30;3.50;99.90
26049;DHT22;13822;51.568;5.086;2022-12-07T07:58:32;3.50;99.90
26049;DHT22;13822;51.568;5.086;2022-12-07T08:03:34;3.50;99.90
26049;DHT22;13822;51.568;5.086;2022-12-07T08:08:36;3.50;99.90
26049;DHT22;13822;51.568;5.086;2022-12-07T08:13:37;3.50;99.90
26049;DHT22;13822;51.568;5.086;2022-12-07T08:18:39;3.50;99.90
26049;DHT22;13822;51.568;5.086;2022-12-07T08:23:42;3.50;99.90
26049;DHT22;13822;51.568;5.086;2022-12-07T08:28:44;3.50;99.90
26049;DHT22;13822;51.568;5.086;2022-12-07T08:33:46;3.60;99.90
26049;DHT22;13822;51.568;5.086;2022-12-07T08:38:49;3.60;99.90
26049;DHT22;13822;51.568;5.086;2022-12-07T08:44:11;3.60;99.90
26049;DHT22;13822;51.568;5.086;2022-12-07T08:49:15;3.70;99.90
26049;DHT22;13822;51.568;5.086;2022-12-07T08:54:19;3.70;99.90
26049;DHT22;13822;51.568;5.086;2022-12-07T08:59:21;3.80;99.90
26049;DHT22;13822;51.568;5.086;2022-12-07T09:04:23;3.80;99.90
26049;DHT22;13822;51.568;5.086;2022-12-07T09:09:25;3.80;99.90
26049;DHT22;13822;51.568;5.086;2022-12-07T09:14:27;3.80;99.90
26049;DHT22;13822;51.568;5.086;2022-12-07T09:19:29;3.80;99.90
26049;DHT22;13822;51.568;5.086;2022-12-07T09:24:31;3.80;99.90
26049;DHT22;13822;51.568;5.086;2022-12-07T09:29:33;3.80;99.90
26049;DHT22;13822;51.568;5.086;2022-12-07T09:34:35;3.80;99.90
26049;DHT22;13822;51.568;5.086;2022-12-07T09:39:37;3.80;99.90
26049;DHT22;13822;51.568;5.086;2022-12-07T09:44:46;3.90;99.90
26049;DHT22;13822;51.568;5.086;2022-12-07T09:49:48;3.90;99.90
26049;DHT22;13822;51.568;5.086;2022-12-07T09:54:50;3.90;99.90
26049;DHT22;13822;51.568;5.086;2022-12-07T09:59:52;4.00;99.90
26049;DHT22;13822;51.568;5.086;2022-12-07T10:04:54;4.00;99.90
26049;DHT22;13822;51.568;5.086;2022-12-07T10:09:57;4.10;99.90
26049;DHT22;13822;51.568;5.086;2022-12-07T10:15:00;4.20;99.90
26049;DHT22;13822;51.568;5.086;2022-12-07T10:25:25;4.40;99.90
26049;DHT22;13822;51.568;5.086;2022-12-07T10:30:29;4.50;99.90
26049;DHT22;13822;51.568;5.086;2022-12-07T10:35:33;4.60;99.90
26049;DHT22;13822;51.568;5.086;2022-12-07T10:40:44;4.70;99.90
26049;DHT22;13822;51.568;5.086;2022-12-07T10:45:58;4.80;99.90
26049;DHT22;13822;51.568;5.086;2022-12-07T11:19:02;5.40;99.90
26049;DHT22;13822;51.568;5.086;2022-12-07T11:29:14;5.70;99.90
26049;DHT22;13822;51.568;5.086;2022-12-07T11:34:39;5.80;99.90
26049;DHT22;13822;51.568;5.086;2022-12-07T11:39:49;5.80;99.90
26049;DHT22;13822;51.568;5.086;2022-12-07T11:45:03;5.90;99.90
26049;DHT22;13822;51.568;5.086;2022-12-07T12:06:18;6.20;99.90
26049;DHT22;13822;51.568;5.086;2022-12-07T12:21:53;6.50;99.90
26049;DHT22;13822;51.568;5.086;2022-12-07T12:27:01;6.60;99.90
26049;DHT22;13822;51.568;5.086;2022-12-07T12:32:18;6.60;99.90
26049;DHT22;13822;51.568;5.086;2022-12-07T12:37:42;6.60;99.90
26049;DHT22;13822;51.568;5.086;2022-12-07T12:42:49;6.60;99.90
26049;DHT22;13822;51.568;5.086;2022-12-07T12:53:26;6.60;99.90
26049;DHT22;13822;51.568;5.086;2022-12-07T12:58:30;6.60;99.90
26049;DHT22;13822;51.568;5.086;2022-12-07T13:03:34;6.50;99.90
26049;DHT22;13822;51.568;5.086;2022-12-07T13:08:36;6.40;99.90
26049;DHT22;13822;51.568;5.086;2022-12-07T13:13:42;6.30;99.90
26049;DHT22;13822;51.568;5.086;2022-12-07T13:18:44;6.30;99.90
26049;DHT22;13822;51.568;5.086;2022-12-07T13:29:04;6.20;99.90
26049;DHT22;13822;51.568;5.086;2022-12-07T13:39:33;6.20;99.90
26049;DHT22;13822;51.568;5.086;2022-12-07T13:44:39;6.30;99.90
26049;DHT22;13822;51.568;5.086;2022-12-07T13:49:49;6.30;99.90
26049;DHT22;13822;51.568;5.086;2022-12-07T13:54:59;6.30;99.90
26049;DHT22;13822;51.568;5.086;2022-12-07T14:00:04;6.20;99.90
26049;DHT22;13822;51.568;5.086;2022-12-07T14:15:30;6.00;99.90
26049;DHT22;13822;51.568;5.086;2022-12-07T14:20:37;5.90;99.90
26049;DHT22;13822;51.568;5.086;2022-12-07T14:25:50;5.90;99.90
26049;DHT22;13822;51.568;5.086;2022-12-07T14:30:53;5.90;99.90
26049;DHT22;13822;51.568;5.086;2022-12-07T14:35:55;5.80;99.90
26049;DHT22;13822;51.568;5.086;2022-12-07T14:40:59;5.80;99.90
26049;DHT22;13822;51.568;5.086;2022-12-07T14:46:21;5.70;99.90
26049;DHT22;13822;51.568;5.086;2022-12-07T14:51:23;5.60;99.90
26049;DHT22;13822;51.568;5.086;2022-12-07T14:56:45;5.60;99.90
26049;DHT22;13822;51.568;5.086;2022-12-07T15:01:50;5.60;99.90
26049;DHT22;13822;51.568;5.086;2022-12-07T15:06:56;5.60;99.90
26049;DHT22;13822;51.568;5.086;2022-12-07T15:11:58;5.50;99.90
26049;DHT22;13822;51.568;5.086;2022-12-07T15:17:00;5.50;99.90
26049;DHT22;13822;51.568;5.086;2022-12-07T15:22:17;5.50;99.90
26049;DHT22;13822;51.568;5.086;2022-12-07T15:27:19;5.60;99.90
26049;DHT22;13822;51.568;5.086;2022-12-07T15:32:21;5.50;99.90
26049;DHT22;13822;51.568;5.086;2022-12-07T15:37:24;5.50;99.90
26049;DHT22;13822;51.568;5.086;2022-12-07T15:42:26;5.50;99.90
26049;DHT22;13822;51.568;5.086;2022-12-07T15:47:28;5.50;99.90
26049;DHT22;13822;51.568;5.086;2022-12-07T15:52:30;5.40;99.90
26049;DHT22;13822;51.568;5.086;2022-12-07T15:57:32;5.40;99.90
26049;DHT22;13822;51.568;5.086;2022-12-07T16:02:36;5.40;99.90
26049;DHT22;13822;51.568;5.086;2022-12-07T16:07:40;5.30;99.90
26049;DHT22;13822;51.568;5.086;2022-12-07T16:12:42;5.30;99.90
26049;DHT22;13822;51.568;5.086;2022-12-07T16:17:44;5.20;99.90
26049;DHT22;13822;51.568;5.086;2022-12-07T16:22:46;5.20;99.90
26049;DHT22;13822;51.568;5.086;2022-12-07T16:27:48;5.20;99.90
26049;DHT22;13822;51.568;5.086;2022-12-07T16:32:52;5.20;99.90
26049;DHT22;13822;51.568;5.086;2022-12-07T16:38:01;5.10;99.90
26049;DHT22;13822;51.568;5.086;2022-12-07T16:43:03;5.20;99.90
26049;DHT22;13822;51.568;5.086;2022-12-07T16:48:05;5.20;99.90
26049;DHT22;13822;51.568;5.086;2022-12-07T16:53:07;5.20;99.90
26049;DHT22;13822;51.568;5.086;2022-12-07T16:58:13;5.20;99.90
26049;DHT22;13822;51.568;5.086;2022-12-07T17:03:18;5.10;99.90
26049;DHT22;13822;51.568;5.086;2022-12-07T17:08:21;5.10;99.90
26049;DHT22;13822;51.568;5.086;2022-12-07T17:13:23;5.10;99.90
26049;DHT22;13822;51.568;5.086;2022-12-07T17:18:51;5.10;99.90
26049;DHT22;13822;51.568;5.086;2022-12-07T17:23:53;5.10;99.90
26049;DHT22;13822;51.568;5.086;2022-12-07T17:28:55;5.00;99.90
26049;DHT22;13822;51.568;5.086;2022-12-07T17:33:57;5.00;99.90
26049;DHT22;13822;51.568;5.086;2022-12-07T17:38:59;5.00;99.90
26049;DHT22;13822;51.568;5.086;2022-12-07T17:44:01;5.00;99.90
26049;DHT22;13822;51.568;5.086;2022-12-07T17:49:07;5.00;99.90
26049;DHT22;13822;51.568;5.086;2022-12-07T17:54:09;4.90;99.90
26049;DHT22;13822;51.568;5.086;2022-12-07T17:59:11;4.90;99.90
26049;DHT22;13822;51.568;5.086;2022-12-07T18:04:14;4.90;99.90
26049;DHT22;13822;51.568;5.086;2022-12-07T18:09:16;4.90;99.90
26049;DHT22;13822;51.568;5.086;2022-12-07T18:14:19;4.90;99.90
26049;DHT22;13822;51.568;5.086;2022-12-07T18:19:21;4.90;99.90
26049;DHT22;13822;51.568;5.086;2022-12-07T18:24:23;4.80;99.90
26049;DHT22;13822;51.568;5.086;2022-12-07T18:29:25;4.80;99.90
26049;DHT22;13822;51.568;5.086;2022-12-07T18:34:27;4.80;99.90
26049;DHT22;13822;51.568;5.086;2022-12-07T18:39:31;4.80;99.90
26049;DHT22;13822;51.568;5.086;2022-12-07T18:44:34;4.80;99.90
26049;DHT22;13822;51.568;5.086;2022-12-07T18:49:37;4.70;99.90
26049;DHT22;13822;51.568;5.086;2022-12-07T18:54:39;4.70;99.90
26049;DHT22;13822;51.568;5.086;2022-12-07T18:59:41;4.80;99.90
